Time;durP1;ratioP1;P1;durP2;ratioP2;P2;SDS_P1;SDS_P2;PMS_P1;PMS_P2;Temp;Humidity;BMP_temperature;BMP_pressure;BME280_temperature;BME280_humidity;BME280_pressure;Samples;Min_cycle;Max_cycle;Signal;HPM_P1;HPM_P2
2023/04/01 00:01:31;;;;;;;15.40;8.90;;;10.20;99.90;;;;;;5036134;28;20522;-47
2023/04/01 00:03:56;;;;;;;17.33;8.43;;;10.20;99.90;;;;;;5036197;28;20233;-47
2023/04/01 00:06:22;;;;;;;13.70;8.90;;;10.20;99.90;;;;;;5036138;28;20189;-47
2023/04/01 00:08:48;;;;;;;16.60;9.00;;;10.10;99.90;;;;;;5035778;28;20228;-47
2023/04/01 00:11:14;;;;;;;15.23;8.30;;;10.20;99.90;;;;;;5035754;28;20766;-47
2023/04/01 00:13:40;;;;;;;14.33;8.70;;;10.20;99.90;;;;;;5035479;28;20190;-47
2023/04/01 00:16:07;;;;;;;15.50;9.13;;;10.10;99.90;;;;;;5035697;28;20429;-47
2023/04/01 00:18:33;;;;;;;17.50;9.83;;;10.10;99.90;;;;;;5034924;28;21116;-47
2023/04/01 00:20:59;;;;;;;20.70;8.80;;;10.10;99.90;;;;;;5035945;28;20428;-47
2023/04/01 00:23:25;;;;;;;15.20;8.67;;;10.10;99.90;;;;;;5035642;28;20551;-46
2023/04/01 00:25:50;;;;;;;22.83;9.20;;;10.10;99.90;;;;;;5035431;28;20508;-47
2023/04/01 00:28:18;;;;;;;16.57;9.07;;;10.10;99.90;;;;;;5036005;28;20429;-47
2023/04/01 00:30:44;;;;;;;18.57;9.50;;;10.10;99.90;;;;;;5035743;28;20195;-47
2023/04/01 00:33:12;;;;;;;17.50;9.43;;;10.10;99.90;;;;;;5035693;28;20409;-47
2023/04/01 00:35:40;;;;;;;15.17;8.30;;;10.10;99.90;;;;;;5035492;28;20197;-47
2023/04/01 00:38:06;;;;;;;19.87;9.47;;;10.10;99.90;;;;;;5033492;28;20767;-47
2023/04/01 00:40:33;;;;;;;19.00;9.80;;;10.10;99.90;;;;;;5035435;28;20801;-47
2023/04/01 00:43:00;;;;;;;19.20;10.30;;;10.10;99.90;;;;;;5035085;28;20428;-47
2023/04/01 00:45:37;;;;;;;16.93;9.60;;;10.10;99.90;;;;;;5035451;28;20550;-47
2023/04/01 00:48:08;;;;;;;16.80;9.03;;;10.10;99.90;;;;;;5035456;28;20409;-47
2023/04/01 00:50:35;;;;;;;20.30;9.77;;;10.10;99.90;;;;;;5035149;28;20415;-47
2023/04/01 00:53:02;;;;;;;17.23;10.13;;;10.10;99.90;;;;;;5035147;28;20486;-47
2023/04/01 00:55:31;;;;;;;21.30;10.50;;;10.00;99.90;;;;;;5034938;28;20479;-47
2023/04/01 00:57:59;;;;;;;21.17;10.20;;;10.00;99.90;;;;;;5034997;28;20490;-46
2023/04/01 01:00:27;;;;;;;22.77;10.00;;;10.00;99.90;;;;;;5034720;28;20428;-48
2023/04/01 01:02:53;;;;;;;14.97;9.40;;;10.00;99.90;;;;;;5033706;28;20536;-48
2023/04/01 01:05:26;;;;;;;19.33;9.43;;;10.00;99.90;;;;;;5035245;28;20610;-47
2023/04/01 01:08:05;;;;;;;19.10;10.40;;;10.00;99.90;;;;;;5034444;28;20178;-47
2023/04/01 01:10:33;;;;;;;18.70;10.37;;;10.00;99.90;;;;;;5034595;28;20413;-46
2023/04/01 01:13:02;;;;;;;17.17;10.77;;;10.00;99.90;;;;;;5033717;28;20423;-48
2023/04/01 01:15:37;;;;;;;22.23;10.47;;;10.00;99.90;;;;;;5034494;28;20429;-47
2023/04/01 01:18:07;;;;;;;20.63;10.97;;;10.00;99.90;;;;;;5034713;28;20450;-48
2023/04/01 01:20:57;;;;;;;21.57;11.77;;;10.00;99.90;;;;;;5034817;28;20425;-48
2023/04/01 01:23:41;;;;;;;16.83;10.20;;;10.00;99.90;;;;;;5034581;28;20421;-47
2023/04/01 01:26:51;;;;;;;18.27;9.50;;;10.00;99.90;;;;;;5034254;28;20413;-48
2023/04/01 01:29:34;;;;;;;19.53;10.63;;;10.00;99.90;;;;;;5034305;28;20483;-47
2023/04/01 01:32:18;;;;;;;20.53;9.80;;;10.00;99.90;;;;;;5034285;28;20413;-48
2023/04/01 01:34:53;;;;;;;20.83;9.93;;;10.00;99.90;;;;;;5034412;28;20436;-47
2023/04/01 01:37:22;;;;;;;23.93;10.37;;;10.00;99.90;;;;;;5034665;28;20413;-47
2023/04/01 01:39:54;;;;;;;18.80;9.47;;;10.00;99.90;;;;;;5033988;28;20420;-47
2023/04/01 01:42:22;;;;;;;16.80;10.30;;;9.90;99.90;;;;;;5034201;28;20420;-47
2023/04/01 01:44:49;;;;;;;19.00;10.30;;;9.90;99.90;;;;;;5033931;28;20519;-47
2023/04/01 01:47:16;;;;;;;23.50;10.60;;;9.90;99.90;;;;;;5034432;28;20416;-47
2023/04/01 01:49:44;;;;;;;21.40;10.20;;;10.00;99.90;;;;;;5034158;28;20416;-47
2023/04/01 01:52:12;;;;;;;12.37;9.07;;;10.00;99.90;;;;;;5034051;28;20420;-47
2023/04/01 01:54:48;;;;;;;19.63;11.00;;;10.00;99.90;;;;;;5033486;28;20519;-47
2023/04/01 01:57:17;;;;;;;20.13;9.67;;;9.90;99.90;;;;;;5034305;28;20421;-47
2023/04/01 01:59:43;;;;;;;20.33;9.97;;;10.00;99.90;;;;;;5034362;28;20483;-47
2023/04/01 02:02:10;;;;;;;22.37;10.23;;;9.90;99.90;;;;;;5034239;28;20424;-47
2023/04/01 02:04:39;;;;;;;23.57;10.10;;;9.90;99.90;;;;;;5034130;28;20546;-47
2023/04/01 02:07:10;;;;;;;17.67;9.90;;;10.00;99.90;;;;;;5034054;28;20563;-47
2023/04/01 02:09:37;;;;;;;18.60;9.20;;;9.90;99.90;;;;;;5033973;28;20432;-47
2023/04/01 02:12:12;;;;;;;14.07;9.50;;;10.00;99.90;;;;;;5034262;28;20429;-47
2023/04/01 02:14:41;;;;;;;19.63;10.33;;;9.90;99.90;;;;;;5033555;28;20581;-48
2023/04/01 02:17:14;;;;;;;20.33;10.23;;;9.90;99.90;;;;;;5033769;28;20440;-47
2023/04/01 02:19:47;;;;;;;20.87;10.20;;;9.90;99.90;;;;;;5034008;28;20507;-47
2023/04/01 02:22:18;;;;;;;20.03;9.70;;;9.90;99.90;;;;;;5033967;28;20404;-47
2023/04/01 02:24:46;;;;;;;23.70;10.80;;;9.90;99.90;;;;;;5034074;28;20456;-47
2023/04/01 02:27:12;;;;;;;16.30;10.47;;;9.90;99.90;;;;;;5033842;28;20421;-47
2023/04/01 02:29:38;;;;;;;23.63;9.50;;;9.90;99.90;;;;;;5033943;28;20421;-47
2023/04/01 02:32:05;;;;;;;17.30;9.37;;;9.90;99.90;;;;;;5033090;28;20937;-47
2023/04/01 02:34:32;;;;;;;15.80;9.50;;;9.90;99.90;;;;;;5033462;28;20467;-47
2023/04/01 02:36:57;;;;;;;18.07;9.07;;;9.90;99.90;;;;;;5033273;28;20466;-47
2023/04/01 02:39:25;;;;;;;25.60;10.77;;;9.90;99.90;;;;;;5033428;28;20445;-47
2023/04/01 02:41:50;;;;;;;20.30;8.90;;;9.80;99.90;;;;;;5033803;28;20608;-47
2023/04/01 02:44:16;;;;;;;16.47;9.03;;;9.80;99.90;;;;;;5037362;28;20590;-47
2023/04/01 02:46:42;;;;;;;14.93;8.80;;;9.80;99.90;;;;;;5037429;28;20182;-47
2023/04/01 02:49:08;;;;;;;17.97;8.93;;;9.90;99.90;;;;;;5037274;28;20209;-47
2023/04/01 02:51:34;;;;;;;18.77;9.10;;;9.90;99.90;;;;;;5037041;28;20193;-47
2023/04/01 02:54:00;;;;;;;18.40;8.97;;;9.90;99.90;;;;;;5037197;28;20876;-47
2023/04/01 02:56:26;;;;;;;18.87;8.93;;;9.90;99.90;;;;;;5037113;28;20519;-47
2023/04/01 02:58:52;;;;;;;17.40;10.33;;;9.90;99.90;;;;;;5037481;28;20209;-47
2023/04/01 03:01:17;;;;;;;15.10;8.50;;;9.90;99.90;;;;;;5037224;28;20427;-48
2023/04/01 03:03:43;;;;;;;15.33;9.43;;;9.90;99.90;;;;;;5037083;28;20456;-47
2023/04/01 03:06:12;;;;;;;18.53;11.60;;;9.80;99.90;;;;;;5036832;28;20193;-47
2023/04/01 03:08:38;;;;;;;21.20;12.07;;;9.90;99.90;;;;;;5037067;28;20213;-47
2023/04/01 03:11:04;;;;;;;31.03;17.93;;;9.80;99.90;;;;;;5037047;28;20429;-48
2023/04/01 03:13:30;;;;;;;34.73;20.47;;;9.80;99.90;;;;;;5036868;28;20450;-47
2023/04/01 03:15:55;;;;;;;41.37;22.40;;;9.80;99.90;;;;;;5037183;28;20900;-48
2023/04/01 03:18:21;;;;;;;33.30;19.67;;;9.80;99.90;;;;;;5036891;28;20186;-47
2023/04/01 03:20:47;;;;;;;30.80;19.97;;;9.80;99.90;;;;;;5036400;28;20717;-47
2023/04/01 03:23:12;;;;;;;33.80;17.13;;;9.80;99.90;;;;;;5036806;28;20170;-47
2023/04/01 03:25:38;;;;;;;25.53;14.40;;;9.90;99.90;;;;;;5036555;28;20190;-47
2023/04/01 03:28:04;;;;;;;22.53;12.80;;;9.90;99.90;;;;;;5037097;28;20197;-47
2023/04/01 03:30:31;;;;;;;20.87;12.43;;;9.90;99.90;;;;;;5036851;28;20190;-47
2023/04/01 03:32:57;;;;;;;18.53;11.13;;;9.80;99.90;;;;;;5037052;28;20183;-47
2023/04/01 03:35:23;;;;;;;24.87;11.77;;;9.80;99.90;;;;;;5036942;28;20433;-47
2023/04/01 03:37:50;;;;;;;15.80;10.80;;;9.80;99.90;;;;;;5036694;28;20465;-47
2023/04/01 03:40:16;;;;;;;17.10;11.23;;;9.80;99.90;;;;;;5036942;28;20217;-47
2023/04/01 03:42:42;;;;;;;16.70;10.27;;;9.80;99.90;;;;;;5036282;28;20429;-47
2023/04/01 03:45:07;;;;;;;20.17;9.60;;;9.70;99.90;;;;;;5035995;28;20238;-47
2023/04/01 03:47:33;;;;;;;18.20;10.23;;;9.70;99.90;;;;;;5036244;28;20236;-47
2023/04/01 03:49:59;;;;;;;16.10;10.40;;;9.80;99.90;;;;;;5036526;28;20197;-47
2023/04/01 03:52:24;;;;;;;17.13;10.80;;;9.80;99.90;;;;;;5036389;28;20648;-47
2023/04/01 03:54:50;;;;;;;17.13;9.73;;;9.80;99.90;;;;;;5035821;28;20186;-47
2023/04/01 03:57:16;;;;;;;19.60;10.30;;;9.80;99.90;;;;;;5036375;28;20205;-47
2023/04/01 03:59:42;;;;;;;20.03;10.57;;;9.80;99.90;;;;;;5036103;28;20201;-47
2023/04/01 04:02:07;;;;;;;20.20;10.57;;;9.70;99.90;;;;;;5036226;28;20179;-47
2023/04/01 04:04:33;;;;;;;15.30;9.97;;;9.70;99.90;;;;;;5035586;28;20268;-47
2023/04/01 04:06:59;;;;;;;17.37;9.30;;;9.70;99.90;;;;;;5036049;28;20185;-47
2023/04/01 04:09:24;;;;;;;18.87;9.47;;;9.80;99.90;;;;;;5036011;28;20512;-47
2023/04/01 04:11:50;;;;;;;13.93;8.47;;;9.80;99.90;;;;;;5035988;28;20178;-47
2023/04/01 04:14:16;;;;;;;17.23;9.50;;;9.80;99.90;;;;;;5036034;28;20709;-47
2023/04/01 04:16:42;;;;;;;21.20;9.60;;;9.80;99.90;;;;;;5035816;28;20236;-47
2023/04/01 04:19:07;;;;;;;17.00;9.33;;;9.80;99.90;;;;;;5035972;28;20240;-47
2023/04/01 04:21:33;;;;;;;15.63;8.90;;;9.80;99.90;;;;;;5035524;28;20182;-47
2023/04/01 04:24:02;;;;;;;14.90;8.47;;;9.80;99.90;;;;;;5035749;28;20210;-47
2023/04/01 04:26:28;;;;;;;14.37;8.23;;;9.80;99.90;;;;;;5035306;28;20197;-47
2023/04/01 04:28:54;;;;;;;19.83;9.07;;;9.80;99.90;;;;;;5035570;28;20420;-47
2023/04/01 04:31:22;;;;;;;20.30;10.10;;;9.80;99.90;;;;;;5036029;28;20705;-47
2023/04/01 04:33:48;;;;;;;14.20;9.97;;;9.80;99.90;;;;;;5035681;28;20440;-47
2023/04/01 04:36:14;;;;;;;15.77;9.43;;;9.80;99.90;;;;;;5035822;28;20415;-47
2023/04/01 04:38:40;;;;;;;16.40;10.07;;;9.80;99.90;;;;;;5035546;28;20448;-47
2023/04/01 04:41:12;;;;;;;18.40;10.03;;;9.80;99.90;;;;;;5035161;28;20452;-47
2023/04/01 04:43:39;;;;;;;19.80;11.47;;;9.80;99.90;;;;;;5035228;28;20240;-48
2023/04/01 04:46:10;;;;;;;15.30;9.97;;;9.80;99.90;;;;;;5035726;28;20409;-47
2023/04/01 04:48:36;;;;;;;18.57;10.60;;;9.80;99.90;;;;;;5035032;28;20752;-47
2023/04/01 04:51:02;;;;;;;19.70;9.13;;;9.70;99.90;;;;;;5034636;28;20481;-47
2023/04/01 04:53:28;;;;;;;18.10;11.80;;;9.80;99.90;;;;;;5034935;28;20420;-47
2023/04/01 04:55:53;;;;;;;21.30;11.00;;;9.80;99.90;;;;;;5034934;28;20428;-47
2023/04/01 04:58:19;;;;;;;16.30;9.63;;;9.80;99.90;;;;;;5035164;28;20520;-47
2023/04/01 05:00:45;;;;;;;16.20;10.67;;;9.80;99.90;;;;;;5034705;28;20217;-47
2023/04/01 05:03:12;;;;;;;15.00;10.30;;;9.80;99.90;;;;;;5034993;28;20193;-47
2023/04/01 05:05:38;;;;;;;17.33;11.10;;;9.80;99.90;;;;;;5034223;28;20483;-47
2023/04/01 05:08:04;;;;;;;13.83;10.67;;;9.80;99.90;;;;;;5034341;28;20405;-47
2023/04/01 05:10:30;;;;;;;14.73;10.37;;;9.80;99.90;;;;;;5034225;28;20897;-47
2023/04/01 05:12:56;;;;;;;20.33;11.00;;;9.70;99.90;;;;;;5034452;28;20193;-47
2023/04/01 05:15:22;;;;;;;16.57;10.57;;;9.70;99.90;;;;;;5034684;28;20420;-47
2023/04/01 05:17:47;;;;;;;18.70;11.40;;;9.70;99.90;;;;;;5034730;28;20253;-47
2023/04/01 05:20:13;;;;;;;19.53;11.40;;;9.70;99.90;;;;;;5034639;28;20190;-47
2023/04/01 05:22:39;;;;;;;14.83;10.03;;;9.70;99.90;;;;;;5034796;28;20187;-47
2023/04/01 05:25:05;;;;;;;18.43;11.03;;;9.70;99.90;;;;;;5034544;28;20459;-47
2023/04/01 05:27:31;;;;;;;18.20;10.80;;;9.80;99.90;;;;;;5034491;28;20188;-47
2023/04/01 05:29:57;;;;;;;17.40;10.13;;;9.80;99.90;;;;;;5034584;28;20503;-47
2023/04/01 05:32:23;;;;;;;3.60;3.30;;;9.80;99.90;;;;;;5034570;28;20236;-47
2023/04/01 05:34:51;;;;;;;4.73;2.50;;;9.80;99.90;;;;;;5034590;28;20207;-47
2023/04/01 05:37:16;;;;;;;2.00;1.70;;;9.60;99.90;;;;;;5034093;28;20192;-47
2023/04/01 05:39:42;;;;;;;2.63;1.90;;;9.30;99.90;;;;;;5034275;28;20421;-47
2023/04/01 05:42:08;;;;;;;1.60;1.50;;;9.20;99.90;;;;;;5034280;28;20192;-47
2023/04/01 05:44:34;;;;;;;1.30;1.20;;;9.10;99.90;;;;;;5033729;28;20265;-47
2023/04/01 05:47:00;;;;;;;1.40;1.30;;;9.00;99.90;;;;;;5034353;28;20428;-47
2023/04/01 05:49:26;;;;;;;1.20;1.10;;;8.90;99.90;;;;;;5033998;28;20409;-47
2023/04/01 05:51:51;;;;;;;1.57;1.40;;;8.80;99.90;;;;;;5034368;28;20182;-47
2023/04/01 05:54:18;;;;;;;2.13;1.90;;;8.70;99.90;;;;;;5034494;28;20225;-47
2023/04/01 05:56:44;;;;;;;2.90;1.90;;;8.70;99.90;;;;;;5034055;28;20198;-47
2023/04/01 05:59:11;;;;;;;1.60;1.50;;;8.50;99.90;;;;;;5034267;28;20417;-47
2023/04/01 06:01:36;;;;;;;1.40;1.30;;;8.50;99.90;;;;;;5034052;28;20197;-47
2023/04/01 06:04:02;;;;;;;1.50;1.40;;;8.50;99.90;;;;;;5034187;28;20607;-47
2023/04/01 06:06:31;;;;;;;1.80;1.30;;;8.50;99.90;;;;;;5034169;28;20186;-47
2023/04/01 06:09:05;;;;;;;2.03;1.53;;;8.40;99.90;;;;;;5033954;28;20717;-47
2023/04/01 06:12:07;;;;;;;1.37;1.27;;;8.30;99.90;;;;;;5033862;28;20405;-47
2023/04/01 06:14:48;;;;;;;1.87;1.60;;;8.10;99.90;;;;;;5033515;28;20436;-47
2023/04/01 06:17:24;;;;;;;1.63;1.53;;;8.10;99.90;;;;;;5032844;28;20515;-47
2023/04/01 06:20:20;;;;;;;2.43;1.97;;;8.10;99.90;;;;;;5033866;28;20415;-47
2023/04/01 06:23:07;;;;;;;1.30;1.20;;;8.00;99.90;;;;;;5033515;28;20886;-47
2023/04/01 06:25:52;;;;;;;1.83;1.73;;;7.90;99.90;;;;;;5033923;28;20517;-47
2023/04/01 06:28:37;;;;;;;1.97;1.87;;;7.90;99.90;;;;;;5033749;28;20441;-47
2023/04/01 06:31:13;;;;;;;3.03;1.50;;;7.80;99.90;;;;;;5033574;28;20849;-47
2023/04/01 06:34:07;;;;;;;1.60;1.50;;;7.80;99.90;;;;;;5033163;28;20412;-47
2023/04/01 06:37:07;;;;;;;1.57;1.47;;;7.70;99.90;;;;;;5033701;28;20495;-47
2023/04/01 06:40:06;;;;;;;1.60;1.50;;;7.70;99.90;;;;;;5033191;28;20941;-47
2023/04/01 06:42:53;;;;;;;1.50;1.40;;;7.60;99.90;;;;;;5033043;28;20417;-47
2023/04/01 06:45:46;;;;;;;1.73;1.63;;;7.60;99.90;;;;;;5033115;28;20487;-47
2023/04/01 06:48:31;;;;;;;1.70;1.30;;;7.60;99.90;;;;;;5033464;28;20492;-47
2023/04/01 06:51:36;;;;;;;1.90;1.67;;;7.60;99.90;;;;;;5033579;28;20769;-47
2023/04/01 06:54:21;;;;;;;1.20;1.10;;;7.60;99.90;;;;;;5033354;28;20487;-47
2023/04/01 06:56:55;;;;;;;2.43;1.30;;;7.60;99.90;;;;;;5033638;28;20435;-47
2023/04/01 06:59:25;;;;;;;2.00;1.80;;;7.50;99.90;;;;;;5033396;28;20411;-47
2023/04/01 07:02:01;;;;;;;2.57;1.63;;;7.50;99.90;;;;;;5033102;28;20436;-48
2023/04/01 07:04:35;;;;;;;2.40;1.47;;;7.60;99.90;;;;;;5032976;28;20609;-47
2023/04/01 07:07:12;;;;;;;1.33;1.23;;;7.50;99.90;;;;;;5033816;28;20428;-47
2023/04/01 07:09:43;;;;;;;1.37;1.27;;;7.40;99.90;;;;;;5033604;28;20419;-47
2023/04/01 07:12:30;;;;;;;1.33;1.23;;;7.50;99.90;;;;;;5033304;28;20396;-47
2023/04/01 07:14:57;;;;;;;1.40;1.30;;;7.50;99.90;;;;;;5033438;28;20888;-47
2023/04/01 07:17:28;;;;;;;1.20;1.10;;;7.40;99.90;;;;;;5033249;28;20481;-47
2023/04/01 07:20:07;;;;;;;1.30;1.20;;;7.40;99.90;;;;;;5033311;28;20401;-47
2023/04/01 07:22:37;;;;;;;1.20;1.10;;;7.40;99.90;;;;;;5033273;28;20404;-47
2023/04/01 07:25:16;;;;;;;2.07;1.03;;;7.40;99.90;;;;;;5033253;28;20536;-48
2023/04/01 07:27:45;;;;;;;1.30;1.20;;;7.40;99.90;;;;;;5033398;28;20411;-48
2023/04/01 07:30:19;;;;;;;1.93;1.30;;;7.40;99.90;;;;;;5036669;28;20924;-48
2023/04/01 07:32:57;;;;;;;1.57;1.10;;;7.30;99.90;;;;;;5036928;28;20752;-47
2023/04/01 07:35:26;;;;;;;1.07;1.00;;;7.30;99.90;;;;;;5036272;28;20788;-48
2023/04/01 07:38:31;;;;;;;1.67;1.10;;;7.30;99.90;;;;;;5036238;28;20451;-48
2023/04/01 07:41:14;;;;;;;3.13;1.30;;;7.20;99.90;;;;;;5036611;28;20471;-47
2023/04/01 07:44:18;;;;;;;1.83;1.10;;;7.10;99.90;;;;;;5035736;28;20559;-47
2023/04/01 07:47:05;;;;;;;2.50;1.30;;;7.10;99.90;;;;;;5036493;28;20409;-48
2023/04/01 07:50:06;;;;;;;1.33;1.23;;;7.10;99.90;;;;;;5036249;28;20444;-48
2023/04/01 07:52:50;;;;;;;2.70;1.53;;;7.10;99.90;;;;;;5035076;28;20517;-48
2023/04/01 07:55:29;;;;;;;1.20;1.07;;;7.10;99.90;;;;;;5036090;28;20467;-46
2023/04/01 07:58:00;;;;;;;4.97;1.37;;;6.90;99.90;;;;;;5036004;28;20413;-46
2023/04/01 08:00:56;;;;;;;1.43;1.10;;;6.90;99.90;;;;;;5036102;28;20924;-48
2023/04/01 08:03:41;;;;;;;1.63;1.53;;;6.80;89.70;;;;;;5028068;28;20435;-48
2023/04/01 08:06:34;;;;;;;1.13;1.03;;;6.80;99.90;;;;;;5034571;28;20503;-47
2023/04/01 08:09:33;;;;;;;1.30;1.20;;;6.90;99.90;;;;;;5036061;28;20493;-48
2023/04/01 08:12:43;;;;;;;1.70;1.07;;;6.80;95.40;;;;;;5036082;28;20408;-47
2023/04/01 08:16:05;;;;;;;1.17;1.00;;;6.80;92.50;;;;;;5035786;28;20403;-48
2023/04/01 08:18:55;;;;;;;0.90;0.90;;;6.90;99.90;;;;;;5013688;28;20827;-48
2023/04/01 08:21:24;;;;;;;1.47;1.33;;;7.00;87.50;;;;;;5013452;28;20411;-48
2023/04/01 08:23:55;;;;;;;1.47;1.20;;;6.90;55.10;;;;;;5027890;28;20471;-48
2023/04/01 08:26:42;;;;;;;1.17;0.90;;;6.90;47.60;;;;;;5035607;28;20746;-48
2023/04/01 08:29:23;;;;;;;0.90;0.80;;;6.90;30.40;;;;;;5035942;28;20506;-48
2023/04/01 08:31:53;;;;;;;0.93;0.93;;;6.90;11.00;;;;;;5035543;28;20979;-48
2023/04/01 08:34:35;;;;;;;0.80;0.80;;;7.00;39.70;;;;;;5035653;28;20428;-48
2023/04/01 08:37:22;;;;;;;1.13;1.00;;;6.90;1.00;;;;;;5036098;28;20412;-47
2023/04/01 08:39:51;;;;;;;1.33;1.13;;;6.90;1.00;;;;;;5034491;28;20906;-47
2023/04/01 08:42:41;;;;;;;1.07;1.03;;;7.00;7.40;;;;;;5035534;28;20515;-47
2023/04/01 08:45:09;;;;;;;1.90;1.10;;;7.00;1.00;;;;;;5035202;28;21050;-48
2023/04/01 08:47:44;;;;;;;3.63;1.20;;;7.10;18.70;;;;;;5035406;28;20425;-47
2023/04/01 08:50:19;;;;;;;1.20;1.10;;;7.10;44.20;;;;;;5035685;28;20872;-47
2023/04/01 08:52:44;;;;;;;1.33;1.23;;;7.10;39.10;;;;;;5035660;28;20413;-47
2023/04/01 08:55:29;;;;;;;1.30;1.20;;;7.20;23.80;;;;;;5035442;28;20762;-48
2023/04/01 08:58:18;;;;;;;2.10;1.40;;;7.10;2.10;;;;;;5035332;28;20174;-48
2023/04/01 09:00:53;;;;;;;1.10;1.00;;;7.10;1.00;;;;;;5034989;28;20425;-47
2023/04/01 09:03:35;;;;;;;2.43;1.03;;;7.00;1.00;;;;;;5035701;28;20409;-47
2023/04/01 09:06:18;;;;;;;1.30;1.10;;;7.00;1.00;;;;;;5035059;28;20427;-47
2023/04/01 09:09:10;;;;;;;1.13;1.00;;;7.00;1.00;;;;;;5034992;28;20413;-48
2023/04/01 09:11:48;;;;;;;1.20;1.10;;;7.10;1.00;;;;;;5034970;28;20464;-47
2023/04/01 09:14:22;;;;;;;1.53;1.10;;;7.10;1.00;;;;;;5035165;28;20495;-48
2023/04/01 09:17:17;;;;;;;1.37;1.27;;;7.10;1.00;;;;;;5035178;28;20418;-48
2023/04/01 09:19:51;;;;;;;1.33;1.10;;;7.10;1.00;;;;;;5034737;28;20495;-47
2023/04/01 09:22:44;;;;;;;1.50;1.20;;;7.10;1.00;;;;;;5034724;28;20495;-47
2023/04/01 09:25:30;;;;;;;1.97;1.07;;;7.20;1.00;;;;;;5035059;28;20452;-47
2023/04/01 09:28:07;;;;;;;1.50;1.00;;;7.30;1.00;;;;;;5034881;28;20465;-47
2023/04/01 09:30:53;;;;;;;2.40;1.40;;;7.30;1.00;;;;;;5034440;28;20407;-48
2023/04/01 09:33:37;;;;;;;1.80;1.20;;;7.40;1.00;;;;;;5034834;28;20803;-47
2023/04/01 09:36:33;;;;;;;1.03;1.00;;;7.50;1.00;;;;;;5034702;28;20471;-47
2023/04/01 09:39:23;;;;;;;1.30;0.97;;;7.30;1.00;;;;;;5034418;28;20869;-48
2023/04/01 09:42:13;;;;;;;1.10;1.00;;;7.30;1.00;;;;;;5034330;28;20421;-48
2023/04/01 09:45:05;;;;;;;3.43;1.00;;;7.40;1.00;;;;;;5034017;28;20503;-48
2023/04/01 09:48:09;;;;;;;1.53;1.17;;;7.50;1.00;;;;;;5034324;28;20742;-47
2023/04/01 09:51:13;;;;;;;1.00;0.90;;;7.50;99.90;;;;;;5029741;28;20798;-48
2023/04/01 09:53:59;;;;;;;1.23;1.13;;;7.60;1.00;;;;;;5027654;28;20554;-48
2023/04/01 09:56:57;;;;;;;1.20;1.10;;;7.70;1.00;;;;;;5033975;28;20417;-48
2023/04/01 09:59:44;;;;;;;1.00;1.00;;;7.70;99.90;;;;;;5033932;28;20453;-48
2023/04/01 10:02:16;;;;;;;1.17;1.07;;;7.60;99.90;;;;;;5034044;28;20433;-48
2023/04/01 10:05:05;;;;;;;1.50;1.00;;;7.50;99.90;;;;;;5033941;28;20460;-48
2023/04/01 10:07:49;;;;;;;1.30;1.20;;;7.50;99.90;;;;;;5033946;28;20441;-48
2023/04/01 10:10:31;;;;;;;1.70;1.20;;;7.60;1.00;;;;;;5033807;28;20909;-48
2023/04/01 10:13:20;;;;;;;1.20;1.10;;;7.50;99.90;;;;;;5034166;28;20761;-48
2023/04/01 10:16:10;;;;;;;1.73;1.07;;;7.60;1.00;;;;;;5033707;28;20403;-48
2023/04/01 10:18:56;;;;;;;0.97;0.87;;;7.60;1.00;;;;;;5033872;28;20429;-48
2023/04/01 10:21:34;;;;;;;1.20;1.10;;;7.70;1.00;;;;;;5033767;28;20451;-48
2023/04/01 10:24:53;;;;;;;1.00;0.90;;;7.70;99.90;;;;;;5033776;28;20488;-48
2023/04/01 10:27:45;;;;;;;1.30;0.83;;;7.60;99.90;;;;;;5011777;28;20430;-48
2023/04/01 10:30:40;;;;;;;1.07;0.80;;;7.80;99.90;;;;;;5011943;28;20965;-48
2023/04/01 10:33:35;;;;;;;0.83;0.83;;;8.00;99.90;;;;;;5023474;28;20433;-48
2023/04/01 10:36:32;;;;;;;1.97;0.80;;;8.00;99.90;;;;;;5033482;28;20424;-48
2023/04/01 10:39:19;;;;;;;0.80;0.80;;;8.00;99.90;;;;;;5031573;28;20440;-48
2023/04/01 10:42:08;;;;;;;2.20;1.00;;;8.10;99.90;;;;;;5033499;28;20471;-48
2023/04/01 10:44:49;;;;;;;0.93;0.93;;;8.10;99.90;;;;;;5022404;28;20510;-49
2023/04/01 10:47:37;;;;;;;2.30;0.90;;;8.00;99.90;;;;;;5033806;28;20413;-48
2023/04/01 10:50:14;;;;;;;0.80;0.80;;;7.90;99.90;;;;;;5033380;28;20426;-48
2023/04/01 10:53:19;;;;;;;0.90;0.90;;;7.70;99.90;;;;;;5033640;28;20425;-49
2023/04/01 10:56:22;;;;;;;1.00;0.90;;;7.70;99.90;;;;;;5033110;28;20413;-48
2023/04/01 10:59:09;;;;;;;0.90;0.80;;;7.60;99.90;;;;;;5033531;28;20421;-48
2023/04/01 11:02:05;;;;;;;0.90;0.80;;;7.70;99.90;;;;;;5033441;28;20424;-48
2023/04/01 11:04:51;;;;;;;1.10;1.00;;;7.90;99.90;;;;;;5036321;28;20452;-48
2023/04/01 11:07:42;;;;;;;0.80;0.80;;;7.80;99.90;;;;;;5037280;28;20912;-48
2023/04/01 11:10:19;;;;;;;0.83;0.83;;;7.70;60.30;;;;;;5037300;28;20421;-48
2023/04/01 11:12:51;;;;;;;0.80;0.80;;;7.80;99.90;;;;;;5036886;28;20923;-48
2023/04/01 11:15:35;;;;;;;1.27;1.00;;;7.90;99.90;;;;;;5037171;28;20421;-48
2023/04/01 11:18:52;;;;;;;1.33;1.10;;;8.00;99.90;;;;;;5036909;28;20510;-48
2023/04/01 11:21:38;;;;;;;3.97;1.07;;;7.70;1.00;;;;;;5027380;28;20748;-48
2023/04/01 11:24:17;;;;;;;2.60;1.10;;;7.80;99.90;;;;;;5036935;28;20794;-48
2023/04/01 11:26:45;;;;;;;1.00;0.90;;;7.70;32.80;;;;;;5037257;28;20412;-48
2023/04/01 11:29:27;;;;;;;1.23;1.00;;;7.80;99.90;;;;;;5037091;28;20432;-48
2023/04/01 11:32:12;;;;;;;1.53;1.37;;;7.80;99.90;;;;;;5036942;28;20835;-48
2023/04/01 11:34:59;;;;;;;1.20;1.10;;;7.70;99.90;;;;;;5036655;28;20425;-48
2023/04/01 11:37:33;;;;;;;1.10;1.00;;;7.60;17.00;;;;;;5036544;28;20885;-48
2023/04/01 11:40:24;;;;;;;1.37;1.27;;;7.40;99.90;;;;;;5036829;28;20396;-48
2023/04/01 11:43:01;;;;;;;2.37;1.43;;;7.40;99.90;;;;;;5036380;28;20869;-48
2023/04/01 11:46:00;;;;;;;1.47;1.37;;;7.40;99.90;;;;;;5036576;28;20491;-48
2023/04/01 11:48:49;;;;;;;2.10;1.87;;;7.30;99.90;;;;;;5036618;28;20814;-48
2023/04/01 11:51:34;;;;;;;3.33;2.40;;;7.30;99.90;;;;;;5036469;28;20474;-48
2023/04/01 11:54:32;;;;;;;2.53;2.20;;;7.40;99.90;;;;;;5036308;28;20766;-48
2023/04/01 11:57:31;;;;;;;2.07;1.83;;;7.30;99.90;;;;;;5036606;28;20422;-48
2023/04/01 12:00:15;;;;;;;2.40;2.20;;;7.20;99.90;;;;;;5036163;28;20412;-48
2023/04/01 12:03:14;;;;;;;3.23;2.20;;;7.10;99.90;;;;;;5036374;28;20405;-48
2023/04/01 12:05:49;;;;;;;4.97;2.37;;;7.00;99.90;;;;;;5036128;28;20535;-48
2023/04/01 12:08:40;;;;;;;3.80;2.57;;;7.00;99.90;;;;;;5036454;28;20452;-48
2023/04/01 12:11:23;;;;;;;3.47;2.50;;;7.10;99.90;;;;;;5025421;28;20452;-48
2023/04/01 12:13:56;;;;;;;4.20;2.60;;;7.00;99.90;;;;;;5036305;28;20500;-48
2023/04/01 12:16:49;;;;;;;4.20;2.80;;;6.90;99.90;;;;;;5034698;28;20413;-48
2023/04/01 12:19:36;;;;;;;4.80;3.87;;;6.90;99.90;;;;;;5035533;28;20508;-48
2023/04/01 12:22:17;;;;;;;5.07;3.40;;;6.80;99.90;;;;;;5035907;28;20409;-48
2023/04/01 12:24:51;;;;;;;6.20;3.97;;;6.70;99.90;;;;;;5035518;28;20464;-49
2023/04/01 12:27:36;;;;;;;8.90;3.80;;;6.80;99.90;;;;;;5035997;28;20416;-48
2023/04/01 12:30:13;;;;;;;5.43;3.80;;;6.80;99.90;;;;;;5035850;28;20415;-49
2023/04/01 12:33:13;;;;;;;4.00;3.50;;;6.80;99.90;;;;;;5035805;28;20500;-49
2023/04/01 12:35:50;;;;;;;4.03;3.23;;;6.80;93.00;;;;;;5033873;28;20437;-49
2023/04/01 12:38:18;;;;;;;4.00;3.60;;;6.80;99.90;;;;;;5036017;28;20408;-49
2023/04/01 12:40:59;;;;;;;7.30;4.20;;;6.80;99.90;;;;;;5035559;28;20485;-49
2023/04/01 12:43:27;;;;;;;7.00;3.83;;;6.80;99.90;;;;;;5035520;28;20444;-49
2023/04/01 12:46:00;;;;;;;6.20;4.37;;;6.80;29.40;;;;;;5034965;28;20493;-49
2023/04/01 12:49:08;;;;;;;6.40;3.90;;;6.80;99.90;;;;;;5035462;28;20479;-49
2023/04/01 12:51:52;;;;;;;4.80;3.83;;;6.80;99.90;;;;;;5035061;28;20441;-47
2023/04/01 12:54:36;;;;;;;4.67;3.57;;;6.70;1.00;;;;;;5035698;28;20410;-47
2023/04/01 12:57:31;;;;;;;6.20;3.90;;;6.70;42.00;;;;;;5034817;28;20560;-48
2023/04/01 13:00:12;;;;;;;7.00;3.80;;;6.70;1.30;;;;;;5034196;28;20444;-47
2023/04/01 13:02:57;;;;;;;5.13;4.03;;;6.60;1.00;;;;;;5034738;28;20440;-47
2023/04/01 13:05:51;;;;;;;5.93;3.77;;;6.60;1.00;;;;;;5034831;28;20468;-47
2023/04/01 13:09:01;;;;;;;4.87;3.80;;;6.60;1.00;;;;;;5022842;28;20802;-48
2023/04/01 13:11:39;;;;;;;10.07;3.97;;;6.60;1.00;;;;;;5034135;28;20901;-47
2023/04/01 13:14:41;;;;;;;7.70;3.60;;;6.60;18.00;;;;;;5034732;28;20496;-47
2023/04/01 13:17:25;;;;;;;5.87;3.33;;;6.60;84.10;;;;;;5034736;28;20413;-47
2023/04/01 13:20:07;;;;;;;6.90;3.33;;;6.60;1.00;;;;;;5034992;28;20416;-46
2023/04/01 13:22:56;;;;;;;3.57;3.27;;;6.60;1.00;;;;;;5034239;28;20419;-47
2023/04/01 13:25:35;;;;;;;4.33;3.40;;;6.60;1.00;;;;;;5034637;28;20461;-47
2023/04/01 13:28:13;;;;;;;9.03;4.33;;;6.60;1.00;;;;;;5034466;28;20435;-48
2023/04/01 13:31:02;;;;;;;5.17;3.30;;;6.60;1.00;;;;;;5034632;28;20402;-47
2023/04/01 13:33:37;;;;;;;4.90;4.07;;;6.60;1.00;;;;;;5034531;28;20413;-48
2023/04/01 13:36:14;;;;;;;3.60;3.30;;;6.50;1.00;;;;;;5034923;28;20416;-48
2023/04/01 13:39:01;;;;;;;9.20;4.20;;;6.60;1.00;;;;;;5033119;28;20417;-48
2023/04/01 13:41:39;;;;;;;9.40;4.53;;;6.60;99.90;;;;;;5034116;28;20173;-48